Time;durP1;ratioP1;P1;durP2;ratioP2;P2;SDS_P1;SDS_P2;PMS_P1;PMS_P2;Temp;Humidity;BMP_temperature;BMP_pressure;BME280_temperature;BME280_humidity;BME280_pressure;Samples;Min_cycle;Max_cycle;Signal;HPM_P1;HPM_P2
2023/03/01 00:01:33;;;;;;;20.60;10.02;;;;;;;-1.79;78.33;102467.63;5006503;28;20741;-63
2023/03/01 00:03:59;;;;;;;22.20;10.25;;;;;;;-1.80;78.24;102470.06;5005299;28;20148;-63
2023/03/01 00:06:26;;;;;;;17.38;10.07;;;;;;;-1.83;78.50;102463.13;4983949;28;20053;-63
2023/03/01 00:08:51;;;;;;;18.17;9.77;;;;;;;-1.86;78.21;102464.56;4991099;28;20046;-63
2023/03/01 00:11:23;;;;;;;15.98;9.90;;;;;;;-1.87;78.46;102470.41;4998367;28;20038;-63
2023/03/01 00:13:51;;;;;;;15.77;10.23;;;;;;;-1.91;78.56;102471.88;4997321;28;20837;-63
2023/03/01 00:16:19;;;;;;;20.48;10.68;;;;;;;-1.94;79.29;102478.38;5001633;28;20041;-62
2023/03/01 00:18:45;;;;;;;18.65;10.50;;;;;;;-2.03;79.74;102481.16;4996918;28;20046;-62
2023/03/01 00:21:10;;;;;;;20.27;11.02;;;;;;;-2.08;79.71;102490.06;4989144;28;20041;-63
2023/03/01 00:23:37;;;;;;;22.38;10.98;;;;;;;-2.08;80.27;102490.97;4995147;28;20598;-63
2023/03/01 00:26:07;;;;;;;18.40;11.50;;;;;;;-2.08;80.02;102485.00;5003166;28;20065;-63
2023/03/01 00:28:32;;;;;;;18.83;10.00;;;;;;;-2.10;80.27;102474.78;5001166;28;20046;-62
2023/03/01 00:31:06;;;;;;;20.65;11.93;;;;;;;-2.08;80.37;102475.78;4991412;28;20053;-63
2023/03/01 00:33:32;;;;;;;17.23;11.13;;;;;;;-2.08;80.54;102479.94;4995075;28;20042;-62
2023/03/01 00:35:58;;;;;;;21.65;11.10;;;;;;;-2.11;80.12;102475.56;5001703;28;20050;-62
2023/03/01 00:38:24;;;;;;;19.23;10.13;;;;;;;-2.13;79.87;102477.09;4997184;28;20030;-62
2023/03/01 00:40:49;;;;;;;17.17;10.88;;;;;;;-2.15;79.82;102478.66;4993435;28;20047;-62
2023/03/01 00:43:14;;;;;;;16.23;9.57;;;;;;;-2.17;80.11;102472.59;5001068;28;20128;-63
2023/03/01 00:45:40;;;;;;;16.65;10.95;;;;;;;-2.17;79.85;102474.25;5005248;28;20030;-63
2023/03/01 00:48:05;;;;;;;19.83;10.63;;;;;;;-2.16;80.32;102469.31;5005309;28;20431;-62
2023/03/01 00:50:31;;;;;;;17.85;11.05;;;;;;;-2.13;80.58;102468.63;4993528;28;20038;-62
2023/03/01 00:52:56;;;;;;;19.27;10.70;;;;;;;-2.21;80.10;102465.56;5005643;28;20483;-62
2023/03/01 00:55:22;;;;;;;21.70;11.15;;;;;;;-2.25;80.19;102467.78;5001234;28;20047;-62
2023/03/01 00:57:47;;;;;;;18.58;11.00;;;;;;;-2.31;79.89;102467.34;5000849;28;20052;-62
2023/03/01 01:00:13;;;;;;;16.90;8.70;;;;;;;-2.35;80.22;102460.31;4995815;28;20608;-62
2023/03/01 01:02:38;;;;;;;20.65;10.68;;;;;;;-2.35;80.00;102462.84;4996219;28;20044;-62
2023/03/01 01:05:04;;;;;;;15.75;9.57;;;;;;;-2.36;80.63;102461.09;4994388;28;20038;-62
2023/03/01 01:07:29;;;;;;;18.48;10.77;;;;;;;-2.36;80.54;102461.09;4994860;28;20138;-62
2023/03/01 01:09:55;;;;;;;20.92;11.23;;;;;;;-2.39;80.41;102458.34;4991945;28;20042;-62
2023/03/01 01:12:21;;;;;;;21.90;11.52;;;;;;;-2.44;80.33;102458.00;4999422;28;20104;-62
2023/03/01 01:14:46;;;;;;;21.48;10.75;;;;;;;-2.49;80.54;102455.91;4998479;28;20499;-62
2023/03/01 01:17:12;;;;;;;21.80;11.18;;;;;;;-2.52;80.71;102461.66;5004245;28;20550;-62
2023/03/01 01:19:37;;;;;;;18.52;9.55;;;;;;;-2.55;81.03;102455.47;5004396;28;20061;-62
2023/03/01 01:22:03;;;;;;;20.80;10.38;;;;;;;-2.59;81.50;102456.94;5001022;28;20045;-62
2023/03/01 01:24:28;;;;;;;18.20;10.25;;;;;;;-2.64;81.93;102453.19;5001847;28;20506;-62
2023/03/01 01:26:54;;;;;;;18.52;10.52;;;;;;;-2.74;82.21;102455.84;5001909;28;20111;-62
2023/03/01 01:29:19;;;;;;;16.27;10.48;;;;;;;-2.80;82.58;102441.09;4995173;28;20121;-62
2023/03/01 01:31:45;;;;;;;21.63;11.20;;;;;;;-2.83;82.39;102445.06;4995694;28;20032;-62
2023/03/01 01:34:16;;;;;;;15.20;9.82;;;;;;;-2.83;82.70;102429.88;4992113;28;20045;-62
2023/03/01 01:36:42;;;;;;;22.23;11.23;;;;;;;-2.83;82.62;102424.81;4992189;28;20722;-63
2023/03/01 01:39:11;;;;;;;17.95;10.52;;;;;;;-2.81;82.60;102416.56;4995946;28;20482;-62
2023/03/01 01:41:36;;;;;;;18.25;10.23;;;;;;;-2.78;82.68;102423.50;4998921;28;20365;-62
2023/03/01 01:44:28;;;;;;;22.02;11.27;;;;;;;-2.75;82.48;102419.53;4994848;28;20022;-62
2023/03/01 01:47:03;;;;;;;24.00;10.60;;;;;;;-2.76;82.26;102414.34;4991968;28;20045;-62
2023/03/01 01:49:32;;;;;;;18.33;10.35;;;;;;;-2.77;82.15;102415.16;4995535;28;20034;-62
2023/03/01 01:52:22;;;;;;;17.27;10.07;;;;;;;-2.80;82.22;102413.25;4990622;28;20528;-62
2023/03/01 01:54:59;;;;;;;17.58;9.50;;;;;;;-2.83;82.13;102412.19;4998727;28;20069;-62
2023/03/01 01:57:34;;;;;;;16.67;8.88;;;;;;;-2.86;82.30;102402.72;4997546;28;20034;-62
2023/03/01 02:00:07;;;;;;;17.02;9.38;;;;;;;-2.87;82.26;102415.25;4995597;28;20053;-62
2023/03/01 02:02:33;;;;;;;17.30;8.90;;;;;;;-2.88;82.45;102419.41;4995201;28;20053;-62
2023/03/01 02:05:10;;;;;;;15.60;9.48;;;;;;;-2.87;82.65;102418.66;5005756;28;20378;-62
2023/03/01 02:07:39;;;;;;;17.20;9.05;;;;;;;-2.89;82.36;102406.69;4999454;28;21306;-62
2023/03/01 02:10:06;;;;;;;18.33;9.65;;;;;;;-2.91;82.45;102406.56;4999660;28;20038;-62
2023/03/01 02:12:32;;;;;;;20.48;11.00;;;;;;;-2.93;82.60;102408.09;5001679;28;20042;-62
2023/03/01 02:14:57;;;;;;;19.95;9.80;;;;;;;-2.95;82.36;102409.66;4992363;28;20080;-62
2023/03/01 02:17:23;;;;;;;17.67;10.27;;;;;;;-2.97;82.52;102407.75;4985953;28;20034;-62
2023/03/01 02:20:10;;;;;;;16.17;8.50;;;;;;;-2.98;82.41;102404.38;4998406;28;20064;-62
2023/03/01 02:22:38;;;;;;;19.70;11.00;;;;;;;-2.97;82.92;102407.75;5003251;28;20053;-62
2023/03/01 02:25:18;;;;;;;19.60;11.48;;;;;;;-3.00;82.73;102410.06;4998179;28;20804;-62
2023/03/01 02:28:08;;;;;;;19.13;11.07;;;;;;;-3.06;83.35;102409.63;4996534;28;20081;-63
2023/03/01 02:30:33;;;;;;;17.70;10.25;;;;;;;-3.12;83.65;102406.69;4994420;28;20045;-62
2023/03/01 02:33:02;;;;;;;19.10;9.75;;;;;;;-3.17;83.54;102400.38;5007034;28;20044;-62
2023/03/01 02:35:34;;;;;;;20.23;10.40;;;;;;;-3.22;83.84;102393.38;4995689;28;20399;-63
2023/03/01 02:38:01;;;;;;;20.10;10.52;;;;;;;-3.24;83.90;102383.88;4996895;28;20037;-63
2023/03/01 02:40:30;;;;;;;20.38;10.50;;;;;;;-3.24;83.83;102388.94;4994629;28;20084;-62
2023/03/01 02:42:57;;;;;;;16.52;10.07;;;;;;;-3.21;83.87;102379.94;4999266;28;20049;-63
2023/03/01 02:45:24;;;;;;;24.10;11.40;;;;;;;-3.12;83.70;102383.94;4993663;28;20034;-63
2023/03/01 02:47:49;;;;;;;19.20;10.02;;;;;;;-3.20;83.68;102380.81;4996464;28;20058;-63
2023/03/01 02:50:30;;;;;;;17.77;10.23;;;;;;;-3.24;83.91;102377.19;4987247;28;20138;-63
2023/03/01 02:53:22;;;;;;;21.98;10.48;;;;;;;-3.25;83.44;102384.69;4996239;28;20025;-63
2023/03/01 02:55:48;;;;;;;17.23;9.40;;;;;;;-3.25;83.64;102388.09;4988850;28;20053;-63
2023/03/01 02:58:13;;;;;;;21.33;10.13;;;;;;;-3.25;83.60;102379.63;4992298;28;20034;-63
2023/03/01 03:00:45;;;;;;;19.50;10.25;;;;;;;-3.26;83.71;102373.69;4992284;28;20092;-63
2023/03/01 03:03:14;;;;;;;20.10;10.27;;;;;;;-3.20;83.68;102381.72;4997999;28;20029;-62
2023/03/01 03:05:41;;;;;;;15.63;10.10;;;;;;;-3.20;83.64;102368.19;4993870;28;20077;-63
2023/03/01 03:08:07;;;;;;;20.42;11.48;;;;;;;-3.20;83.67;102370.72;4997497;28;20045;-63
2023/03/01 03:10:45;;;;;;;18.10;9.85;;;;;;;-3.22;83.57;102378.22;4993817;28;20034;-63
2023/03/01 03:13:13;;;;;;;17.50;10.30;;;;;;;-3.21;83.60;102376.53;4988725;28;20507;-62
2023/03/01 03:15:40;;;;;;;16.30;10.45;;;;;;;-3.20;83.78;102374.13;4998120;28;20050;-62
2023/03/01 03:18:11;;;;;;;18.27;9.75;;;;;;;-3.16;83.60;102365.13;4998034;28;20044;-63
2023/03/01 03:20:37;;;;;;;18.70;10.23;;;;;;;-3.15;83.62;102366.84;4995625;28;20522;-62
2023/03/01 03:23:03;;;;;;;19.25;10.35;;;;;;;-3.15;83.42;102364.31;4996308;28;20396;-63
2023/03/01 03:25:29;;;;;;;21.52;12.43;;;;;;;-3.17;83.54;102362.47;4997934;28;20037;-63
2023/03/01 03:27:59;;;;;;;20.67;10.38;;;;;;;-3.22;83.12;102357.09;4992019;28;20057;-69
2023/03/01 03:30:29;;;;;;;18.95;10.23;;;;;;;-3.25;83.39;102352.69;4994759;28;20038;-69
2023/03/01 03:32:57;;;;;;;17.35;9.73;;;;;;;-3.27;83.68;102346.63;4997249;28;20052;-69
2023/03/01 03:35:25;;;;;;;15.50;9.57;;;;;;;-3.27;83.47;102359.28;4999267;28;20029;-69
2023/03/01 03:38:03;;;;;;;20.02;11.38;;;;;;;-3.26;83.79;102350.94;4999963;28;20038;-69
2023/03/01 03:40:37;;;;;;;20.15;10.30;;;;;;;-3.30;83.94;102351.47;4994363;28;20062;-69
2023/03/01 03:43:09;;;;;;;19.20;10.02;;;;;;;-3.34;84.04;102354.56;4991748;28;20038;-69
2023/03/01 03:45:35;;;;;;;20.38;11.35;;;;;;;-3.37;84.33;102355.97;4996104;28;20654;-69
2023/03/01 03:48:01;;;;;;;18.80;10.77;;;;;;;-3.41;84.18;102357.41;4998625;28;20311;-69
2023/03/01 03:50:27;;;;;;;18.67;10.70;;;;;;;-3.44;84.30;102352.13;4997692;28;20084;-70
2023/03/01 03:52:52;;;;;;;17.58;9.75;;;;;;;-3.47;84.00;102346.84;4994097;28;20045;-70
2023/03/01 03:55:19;;;;;;;25.42;11.77;;;;;;;-3.52;84.10;102347.28;4999540;28;20189;-70
2023/03/01 03:57:51;;;;;;;19.98;11.25;;;;;;;-3.56;83.76;102352.88;4996825;28;20041;-71
2023/03/01 04:00:20;;;;;;;22.40;11.45;;;;;;;-3.59;84.08;102352.66;5002609;28;20055;-71
2023/03/01 04:02:47;;;;;;;18.77;11.30;;;;;;;-3.61;84.15;102346.63;4992236;28;20145;-70
2023/03/01 04:05:15;;;;;;;18.73;10.18;;;;;;;-3.65;84.62;102342.97;4989672;28;20898;-70
2023/03/01 04:07:41;;;;;;;19.48;10.18;;;;;;;-3.65;84.72;102340.44;4999411;28;20069;-70
2023/03/01 04:10:11;;;;;;;22.50;12.60;;;;;;;-3.64;85.83;102331.22;4989417;28;20042;-70
2023/03/01 04:12:36;;;;;;;16.33;10.13;;;;;;;-3.65;84.94;102324.41;4995442;28;20038;-70
2023/03/01 04:15:12;;;;;;;22.13;11.40;;;;;;;-3.69;85.45;102320.81;5003093;28;20127;-70
2023/03/01 04:17:41;;;;;;;21.42;11.65;;;;;;;-3.67;85.59;102324.31;5008961;28;20037;-70
2023/03/01 04:20:12;;;;;;;19.02;10.35;;;;;;;-3.69;85.44;102323.31;4998671;28;20045;-71
2023/03/01 04:22:39;;;;;;;17.85;9.73;;;;;;;-3.73;85.37;102323.88;4990042;28;20156;-70
2023/03/01 04:25:06;;;;;;;23.73;10.77;;;;;;;-3.75;85.52;102321.22;4999614;28;20053;-70
2023/03/01 04:27:33;;;;;;;18.70;10.63;;;;;;;-3.74;85.84;102329.66;4999852;28;20058;-70
2023/03/01 04:29:59;;;;;;;21.15;11.13;;;;;;;-3.68;85.88;102335.16;4999670;28;20129;-71
2023/03/01 04:32:24;;;;;;;20.38;10.15;;;;;;;-3.64;85.63;102332.13;4994348;28;20224;-71
2023/03/01 04:34:49;;;;;;;19.70;9.95;;;;;;;-3.65;85.66;102330.34;5004835;28;20045;-70
2023/03/01 04:37:15;;;;;;;16.45;9.70;;;;;;;-3.69;85.61;102330.03;4996221;28;20061;-71
2023/03/01 04:39:47;;;;;;;23.15;10.35;;;;;;;-3.73;85.53;102336.50;5000967;28;20052;-63
2023/03/01 04:42:13;;;;;;;21.80;10.32;;;;;;;-3.77;85.48;102330.31;4996277;28;20405;-63
2023/03/01 04:44:39;;;;;;;23.35;10.55;;;;;;;-3.80;85.20;102325.06;4998813;28;20048;-63
2023/03/01 04:47:04;;;;;;;22.75;11.48;;;;;;;-3.83;85.34;102324.81;4991647;28;20034;-63
2023/03/01 04:49:29;;;;;;;20.70;11.23;;;;;;;-3.85;85.09;102316.25;4991313;28;20486;-63
2023/03/01 04:51:58;;;;;;;24.58;12.73;;;;;;;-3.86;85.53;102319.53;4998510;28;20141;-63
2023/03/01 04:54:23;;;;;;;23.98;10.93;;;;;;;-3.87;85.50;102317.81;4999491;28;20057;-63
2023/03/01 04:56:49;;;;;;;20.95;11.43;;;;;;;-3.90;85.89;102315.06;5006331;28;20041;-63
2023/03/01 04:59:14;;;;;;;18.77;10.27;;;;;;;-3.91;85.65;102307.34;4991905;28;20640;-65
2023/03/01 05:01:42;;;;;;;18.88;9.93;;;;;;;-3.93;85.84;102306.38;4996699;28;20038;-64
2023/03/01 05:04:12;;;;;;;20.33;11.50;;;;;;;-3.95;85.89;102307.88;4993567;28;20065;-63
2023/03/01 05:06:38;;;;;;;20.88;11.88;;;;;;;-3.94;86.29;102318.09;4995109;28;20081;-64
2023/03/01 05:09:03;;;;;;;22.60;11.20;;;;;;;-3.94;85.94;102317.22;4998478;28;20045;-63
2023/03/01 05:11:33;;;;;;;26.48;12.98;;;;;;;-3.96;85.84;102322.19;4989540;28;20053;-64
2023/03/01 05:13:58;;;;;;;24.92;11.35;;;;;;;-3.99;86.15;102328.66;4996396;28;20122;-63
2023/03/01 05:16:24;;;;;;;27.95;12.18;;;;;;;-4.03;86.23;102319.06;5008507;28;20114;-63
2023/03/01 05:18:50;;;;;;;20.20;11.35;;;;;;;-4.05;86.30;102326.53;5002629;28;20050;-63
2023/03/01 05:21:16;;;;;;;21.25;12.48;;;;;;;-4.05;86.49;102323.13;5001141;28;20038;-63
2023/03/01 05:23:42;;;;;;;26.63;13.15;;;;;;;-4.06;86.75;102334.00;4997381;28;20084;-63
2023/03/01 05:26:08;;;;;;;20.52;12.45;;;;;;;-4.08;86.65;102330.47;4999793;28;20517;-63
2023/03/01 05:28:34;;;;;;;22.98;12.70;;;;;;;-4.10;86.89;102325.28;4993908;28;20046;-63
2023/03/01 05:31:00;;;;;;;24.75;12.20;;;;;;;-4.09;87.28;102321.13;4997901;28;20057;-64
2023/03/01 05:33:26;;;;;;;20.73;11.63;;;;;;;-4.07;87.31;102320.47;4992840;28;20053;-63
2023/03/01 05:35:53;;;;;;;22.17;11.95;;;;;;;-4.08;87.39;102320.38;4993615;28;20048;-64
2023/03/01 05:38:19;;;;;;;27.08;14.38;;;;;;;-4.09;87.59;102322.03;4997768;28;20038;-64
2023/03/01 05:40:47;;;;;;;17.80;10.35;;;;;;;-4.10;87.64;102319.38;4995372;28;20037;-63
2023/03/01 05:43:14;;;;;;;20.20;10.80;;;;;;;-4.11;87.39;102322.69;5002762;28;20176;-63
2023/03/01 05:45:40;;;;;;;26.00;12.98;;;;;;;-4.11;87.71;102328.59;4990083;28;20047;-63
2023/03/01 05:48:07;;;;;;;25.08;13.70;;;;;;;-4.11;88.11;102340.34;4990240;28;20049;-63
2023/03/01 05:50:39;;;;;;;31.67;13.27;;;;;;;-4.10;88.35;102331.97;4985398;28;20428;-63
2023/03/01 05:53:12;;;;;;;21.88;12.30;;;;;;;-4.09;88.29;102331.22;4994619;28;20070;-63
2023/03/01 05:55:38;;;;;;;22.15;12.40;;;;;;;-4.09;88.34;102331.22;4998764;28;20148;-63
2023/03/01 05:58:07;;;;;;;22.75;12.63;;;;;;;-4.10;88.31;102335.41;4993489;28;20092;-63
2023/03/01 06:00:33;;;;;;;24.77;12.75;;;;;;;-4.12;88.41;102343.63;4992077;28;20137;-64
2023/03/01 06:02:59;;;;;;;23.33;13.05;;;;;;;-4.14;88.48;102330.91;5010389;28;20037;-63
2023/03/01 06:05:26;;;;;;;18.98;10.35;;;;;;;-4.16;88.62;102324.00;4999224;28;20042;-63
2023/03/01 06:07:52;;;;;;;20.05;11.55;;;;;;;-4.16;88.61;102324.00;4994664;28;20125;-63
2023/03/01 06:10:20;;;;;;;23.05;11.35;;;;;;;-4.16;88.54;102324.84;5002141;28;20037;-63
2023/03/01 06:12:46;;;;;;;26.25;12.32;;;;;;;-4.15;88.34;102320.69;4992456;28;20049;-63
2023/03/01 06:15:14;;;;;;;21.98;12.30;;;;;;;-4.14;88.88;102314.88;4994133;28;20077;-63
2023/03/01 06:17:41;;;;;;;20.92;12.10;;;;;;;-4.11;88.48;102307.53;4988677;28;20129;-63
2023/03/01 06:20:29;;;;;;;22.73;12.05;;;;;;;-4.11;88.64;102308.41;4984350;28;20038;-63
2023/03/01 06:22:54;;;;;;;19.77;10.88;;;;;;;-4.11;88.65;102307.53;4985670;28;20069;-64
2023/03/01 06:25:22;;;;;;;24.00;11.98;;;;;;;-4.08;88.75;102316.22;4989771;28;20042;-63
2023/03/01 06:27:48;;;;;;;23.55;12.10;;;;;;;-4.06;88.77;102314.69;4987567;28;20096;-63
2023/03/01 06:30:16;;;;;;;32.08;13.75;;;;;;;-4.00;88.53;102314.25;4986817;28;20106;-63
2023/03/01 06:32:42;;;;;;;23.02;13.85;;;;;;;-3.99;88.50;102303.38;4989012;28;20103;-63
2023/03/01 06:35:10;;;;;;;25.08;12.02;;;;;;;-3.97;88.40;102307.78;4983107;28;20069;-63
2023/03/01 06:37:35;;;;;;;22.30;13.23;;;;;;;-3.93;88.32;102312.31;4998209;28;20080;-63
2023/03/01 06:40:07;;;;;;;33.08;14.43;;;;;;;-3.92;88.40;102310.63;4993993;28;20446;-64
2023/03/01 06:42:35;;;;;;;23.90;12.65;;;;;;;-3.91;88.35;102308.22;4999452;28;20907;-63
2023/03/01 06:45:01;;;;;;;27.88;13.15;;;;;;;-3.88;88.13;102310.09;4988004;28;20111;-63
2023/03/01 06:47:27;;;;;;;24.67;12.23;;;;;;;-3.86;88.13;102306.91;4977527;28;20850;-63
2023/03/01 06:49:52;;;;;;;24.83;12.20;;;;;;;-3.83;88.09;102311.31;4964330;28;20034;-64
2023/03/01 06:52:18;;;;;;;27.27;11.85;;;;;;;-3.82;88.15;102308.91;4992683;28;20346;-64
2023/03/01 06:54:43;;;;;;;28.00;14.30;;;;;;;-3.79;88.26;102313.31;4991242;28;20134;-63
2023/03/01 06:57:08;;;;;;;23.92;12.60;;;;;;;-3.74;88.03;102319.56;4991100;28;20129;-64
2023/03/01 06:59:34;;;;;;;34.90;14.05;;;;;;;-3.71;87.99;102326.47;4987175;28;20038;-63
2023/03/01 07:01:59;;;;;;;26.60;14.02;;;;;;;-3.69;88.33;102327.50;4991390;28;20034;-63
2023/03/01 07:04:25;;;;;;;22.75;12.93;;;;;;;-3.65;88.38;102327.81;4985615;28;20038;-63
2023/03/01 07:06:54;;;;;;;24.40;11.77;;;;;;;-3.61;88.19;102322.22;4994944;28;20050;-63
2023/03/01 07:09:23;;;;;;;24.55;12.52;;;;;;;-3.57;88.42;102318.28;4988415;28;20121;-63
2023/03/01 07:11:49;;;;;;;21.75;11.98;;;;;;;-3.51;88.44;102321.25;4997723;28;20107;-64
2023/03/01 07:14:19;;;;;;;23.85;12.65;;;;;;;-3.44;88.55;102316.75;4992182;28;20742;-64
2023/03/01 07:16:45;;;;;;;24.05;12.57;;;;;;;-3.36;88.21;102314.78;4996623;28;20037;-64
2023/03/01 07:19:10;;;;;;;21.02;11.27;;;;;;;-3.29;88.13;102302.69;4997878;28;20428;-64
2023/03/01 07:21:38;;;;;;;23.33;11.85;;;;;;;-3.23;88.11;102295.53;4992028;28;20042;-64
2023/03/01 07:24:05;;;;;;;21.45;11.52;;;;;;;-3.12;nan;102296.28;4992101;28;20053;-63
2023/03/01 07:26:31;;;;;;;24.27;12.27;;;;;;;-3.05;87.52;102295.06;4993346;28;20103;-64
2023/03/01 07:28:59;;;;;;;27.38;12.73;;;;;;;-2.96;87.35;102295.69;5000049;28;20402;-63
2023/03/01 07:31:24;;;;;;;18.48;11.23;;;;;;;-2.88;87.16;102303.03;4995879;28;20627;-70
2023/03/01 07:33:50;;;;;;;23.17;11.80;;;;;;;-2.78;86.94;102299.50;4999885;28;20041;-69
2023/03/01 07:36:15;;;;;;;24.55;12.88;;;;;;;-2.69;86.59;102295.09;4986421;28;20435;-69
2023/03/01 07:38:41;;;;;;;20.90;12.05;;;;;;;-2.58;86.37;102296.69;4988953;28;20788;-69
2023/03/01 07:41:06;;;;;;;23.42;11.38;;;;;;;-2.51;86.19;102293.81;4992633;28;20055;-69
2023/03/01 07:43:31;;;;;;;27.92;11.77;;;;;;;-2.43;85.43;102287.59;4995712;28;20038;-69
2023/03/01 07:46:01;;;;;;;22.17;10.80;;;;;;;-2.37;85.54;102292.22;4996371;28;20060;-69
2023/03/01 07:48:27;;;;;;;26.02;11.32;;;;;;;-2.33;84.74;102292.53;4999280;28;20140;-68
2023/03/01 07:50:52;;;;;;;32.60;14.13;;;;;;;-2.25;84.31;102275.31;4999950;28;20045;-69
2023/03/01 07:53:18;;;;;;;28.83;12.68;;;;;;;-2.20;83.65;102271.41;4993105;28;20033;-69
2023/03/01 07:55:43;;;;;;;22.20;10.85;;;;;;;-2.14;83.17;102281.94;5003791;28;20033;-68
2023/03/01 07:58:09;;;;;;;24.33;12.27;;;;;;;-2.12;82.50;102281.31;4992093;28;20048;-69
2023/03/01 08:00:34;;;;;;;20.95;11.23;;;;;;;-2.09;82.50;102281.50;4995184;28;20874;-69
2023/03/01 08:03:00;;;;;;;21.13;11.48;;;;;;;-2.03;82.84;102277.63;4998322;28;20052;-69
2023/03/01 08:05:26;;;;;;;22.27;11.82;;;;;;;-1.96;82.19;102277.22;4992050;28;20061;-69
2023/03/01 08:07:52;;;;;;;20.80;11.07;;;;;;;-1.89;82.05;102274.31;5005567;28;20064;-69
2023/03/01 08:10:18;;;;;;;21.63;13.15;;;;;;;-1.80;81.41;102258.06;5000285;28;20038;-69
2023/03/01 08:12:43;;;;;;;20.27;12.43;;;;;;;-1.71;80.75;102255.25;4997082;28;20038;-69
2023/03/01 08:15:09;;;;;;;26.77;13.80;;;;;;;-1.61;80.22;102257.59;5001970;28;20486;-69
2023/03/01 08:17:34;;;;;;;23.50;11.70;;;;;;;-1.53;79.89;102259.84;4999665;28;20042;-70
2023/03/01 08:20:00;;;;;;;17.67;11.43;;;;;;;-1.44;79.55;102262.09;4998180;28;20046;-69
2023/03/01 08:22:25;;;;;;;22.92;13.18;;;;;;;-1.34;79.63;102256.78;4994200;28;20102;-70
2023/03/01 08:24:51;;;;;;;25.50;13.10;;;;;;;-1.23;78.27;102239.72;5005551;28;20042;-70
2023/03/01 08:27:17;;;;;;;23.98;13.65;;;;;;;-1.15;77.26;102233.47;4994948;28;20757;-70
2023/03/01 08:29:42;;;;;;;23.60;12.65;;;;;;;-1.07;76.99;102229.72;4996527;28;20061;-69
2023/03/01 08:32:08;;;;;;;20.63;11.35;;;;;;;-1.01;76.88;102230.09;4992800;28;20049;-71
2023/03/01 08:34:35;;;;;;;22.10;13.00;;;;;;;-0.93;76.72;102221.31;5004941;28;20042;-70
2023/03/01 08:37:01;;;;;;;24.27;14.18;;;;;;;-0.86;75.81;102198.03;4996596;28;20061;-70
2023/03/01 08:39:26;;;;;;;27.42;14.35;;;;;;;-0.78;74.80;102188.38;5000004;28;20145;-70
2023/03/01 08:41:52;;;;;;;20.55;12.15;;;;;;;-0.73;74.95;102192.91;4993090;28;20045;-69
2023/03/01 08:44:18;;;;;;;22.48;12.90;;;;;;;-0.69;74.65;102191.44;4993480;28;20117;-69
2023/03/01 08:46:45;;;;;;;22.65;12.80;;;;;;;-0.67;74.13;102198.38;4995810;28;20141;-70
2023/03/01 08:49:16;;;;;;;23.27;13.38;;;;;;;-0.68;74.60;102208.41;4998540;28;20559;-70
2023/03/01 08:51:42;;;;;;;24.15;12.82;;;;;;;-0.64;74.62;102211.25;4994104;28;20115;-69
2023/03/01 08:54:26;;;;;;;28.42;13.45;;;;;;;-0.54;75.02;102213.53;4998899;28;20530;-70
2023/03/01 08:56:51;;;;;;;26.35;13.60;;;;;;;-0.43;74.73;102216.72;4996488;28;20776;-69
2023/03/01 08:59:18;;;;;;;29.75;13.48;;;;;;;-0.32;74.55;102209.69;4997717;28;20034;-70
2023/03/01 09:01:43;;;;;;;25.17;13.65;;;;;;;-0.22;74.36;102200.19;5002032;28;20044;-70
2023/03/01 09:04:10;;;;;;;29.27;13.00;;;;;;;-0.08;73.30;102173.00;4995877;28;20042;-70
2023/03/01 09:06:35;;;;;;;25.70;12.35;;;;;;;0.03;72.02;102149.06;4995500;28;20046;-70
2023/03/01 09:09:02;;;;;;;27.30;12.95;;;;;;;0.06;72.02;102157.72;4994188;28;20124;-70
2023/03/01 09:11:28;;;;;;;20.42;12.13;;;;;;;0.09;72.00;102160.44;5002462;28;20048;-69
2023/03/01 09:13:54;;;;;;;29.88;13.93;;;;;;;0.19;71.59;102156.75;4993165;28;20054;-69
2023/03/01 09:16:21;;;;;;;24.65;12.85;;;;;;;0.29;72.21;102151.38;5002781;28;20045;-69
2023/03/01 09:18:51;;;;;;;26.73;14.40;;;;;;;0.37;71.35;102150.13;4992031;28;20865;-70
2023/03/01 09:21:18;;;;;;;25.55;14.38;;;;;;;0.48;71.98;102156.69;4990433;28;20168;-70
2023/03/01 09:23:46;;;;;;;27.20;14.45;;;;;;;0.59;71.12;102130.13;4994866;28;20049;-70
2023/03/01 09:26:16;;;;;;;26.00;13.75;;;;;;;0.65;71.51;102133.00;4998779;28;20034;-69
2023/03/01 09:28:42;;;;;;;24.92;14.00;;;;;;;0.76;71.01;102128.50;4995948;28;20037;-69
2023/03/01 09:31:08;;;;;;;25.27;14.32;;;;;;;0.88;71.96;102146.09;4994754;28;20033;-70
2023/03/01 09:33:33;;;;;;;29.85;14.95;;;;;;;0.91;71.43;102133.50;4990967;28;20581;-70
2023/03/01 09:36:01;;;;;;;23.48;13.93;;;;;;;0.99;71.78;102143.28;4992340;28;20882;-69
2023/03/01 09:38:27;;;;;;;26.80;14.15;;;;;;;1.09;71.40;102144.66;4990233;28;20030;-69
2023/03/01 09:40:53;;;;;;;28.52;13.90;;;;;;;1.21;71.09;102122.38;4995100;28;20044;-69
2023/03/01 09:43:29;;;;;;;26.45;14.15;;;;;;;1.31;70.89;102119.47;4999504;28;20100;-70
2023/03/01 09:45:58;;;;;;;24.55;14.00;;;;;;;1.39;71.09;102123.25;4996537;28;20103;-70
2023/03/01 09:48:27;;;;;;;32.80;15.57;;;;;;;1.43;70.69;102117.53;4989109;28;20133;-69
2023/03/01 09:50:53;;;;;;;25.75;14.60;;;;;;;1.51;69.91;102097.56;4993504;28;20137;-69
2023/03/01 09:53:22;;;;;;;29.35;14.23;;;;;;;1.60;69.67;102086.09;4996256;28;20088;-68
2023/03/01 09:56:01;;;;;;;22.75;14.40;;;;;;;1.70;69.04;102069.59;4993594;28;20076;-70
2023/03/01 09:58:57;;;;;;;26.17;13.25;;;;;;;1.78;68.60;102068.28;4993090;28;20073;-68
2023/03/01 10:01:35;;;;;;;25.23;13.90;;;;;;;1.93;68.28;102061.34;4999489;28;20155;-68
2023/03/01 10:04:12;;;;;;;23.92;14.13;;;;;;;2.02;67.26;102049.03;4992591;28;20035;-68
2023/03/01 10:06:44;;;;;;;28.38;14.38;;;;;;;2.08;67.38;102049.31;4991416;28;20070;-68
2023/03/01 10:09:16;;;;;;;23.55;14.55;;;;;;;2.22;67.55;102047.41;5000583;28;20519;-69
2023/03/01 10:11:48;;;;;;;25.67;14.73;;;;;;;2.28;68.36;102058.75;4994333;28;20057;-68
2023/03/01 10:14:36;;;;;;;30.45;14.27;;;;;;;2.46;66.95;102029.78;4997810;28;20539;-68
2023/03/01 10:17:42;;;;;;;26.58;13.32;;;;;;;2.62;66.05;102016.88;4995883;28;20168;-68
2023/03/01 10:20:29;;;;;;;26.70;14.13;;;;;;;2.72;65.54;102004.59;5005522;28;20053;-68
2023/03/01 10:22:55;;;;;;;24.65;13.77;;;;;;;2.80;64.83;101987.03;4990142;28;20037;-68
2023/03/01 10:25:41;;;;;;;23.02;14.82;;;;;;;2.95;64.79;101988.56;4990675;28;20133;-68
2023/03/01 10:28:33;;;;;;;29.45;13.93;;;;;;;3.06;64.67;101977.88;4986620;28;20096;-69
2023/03/01 10:30:59;;;;;;;21.23;12.32;;;;;;;3.25;62.20;101934.41;4989436;28;20529;-68
2023/03/01 10:33:29;;;;;;;24.33;12.45;;;;;;;3.44;61.39;101924.09;4992426;28;20046;-68
2023/03/01 10:35:55;;;;;;;18.65;11.30;;;;;;;3.63;60.12;101897.53;4988727;28;20030;-68
2023/03/01 10:38:20;;;;;;;21.30;12.50;;;;;;;3.78;61.20;101914.34;5000576;28;20163;-68
2023/03/01 10:40:56;;;;;;;19.70;11.32;;;;;;;3.90;61.60;101922.47;4992742;28;20438;-70
2023/03/01 10:43:26;;;;;;;18.10;11.40;;;;;;;3.94;58.16;101854.41;4999683;28;20467;-69
2023/03/01 10:45:52;;;;;;;18.33;12.15;;;;;;;4.07;58.23;101871.91;4989005;28;20077;-68
2023/03/01 10:48:25;;;;;;;17.23;10.90;;;;;;;4.15;59.12;101892.66;4991039;28;20735;-69
2023/03/01 10:51:05;;;;;;;20.15;11.52;;;;;;;4.23;58.37;101870.75;4985168;28;20049;-69
2023/03/01 10:53:36;;;;;;;23.45;11.20;;;;;;;4.32;58.53;101871.09;4991320;28;20092;-70
2023/03/01 10:56:19;;;;;;;19.92;10.85;;;;;;;4.43;55.87;101826.22;4989809;28;20088;-67
2023/03/01 10:59:00;;;;;;;19.60;11.50;;;;;;;4.46;54.97;101806.72;4991266;28;20073;-70
2023/03/01 11:01:35;;;;;;;20.13;10.52;;;;;;;4.51;54.79;101810.31;4995217;28;20034;-69
2023/03/01 11:04:12;;;;;;;15.90;9.70;;;;;;;4.56;54.70;101808.78;4993489;28;20037;-70
2023/03/01 11:06:39;;;;;;;18.42;10.35;;;;;;;4.68;54.77;101823.66;4988421;28;20097;-68
2023/03/01 11:09:22;;;;;;;17.00;9.88;;;;;;;4.82;54.27;101803.59;4996984;28;20045;-69
2023/03/01 11:11:56;;;;;;;17.75;9.93;;;;;;;4.85;52.56;101784.09;4990263;28;20084;-69
2023/03/01 11:14:35;;;;;;;13.10;8.80;;;;;;;4.92;53.14;101792.84;4996965;28;20057;-69
2023/03/01 11:17:12;;;;;;;16.50;9.30;;;;;;;4.99;53.77;101805.88;4991631;28;20457;-69
2023/03/01 11:19:38;;;;;;;14.98;9.10;;;;;;;5.01;51.62;101782.88;4987782;28;20522;-69